Time;durP1;ratioP1;P1;durP2;ratioP2;P2;SDS_P1;SDS_P2;PMS_P1;PMS_P2;Temp;Humidity;BMP_temperature;BMP_pressure;BME280_temperature;BME280_humidity;BME280_pressure;Samples;Min_cycle;Max_cycle;Signal;HPM_P1;HPM_P2
2021/06/13 00:01:21;;;;;;;6.70;2.53;;;13.90;98.40;;;;;;4147364;28;20217;-75
2021/06/13 00:03:22;;;;;;;5.37;2.13;;;13.80;98.50;;;;;;4153312;28;20217;-75
2021/06/13 00:05:23;;;;;;;5.37;2.13;;;13.80;98.70;;;;;;4164178;28;20251;-75
2021/06/13 00:07:26;;;;;;;4.13;2.00;;;13.80;98.80;;;;;;4146227;28;20704;-75
2021/06/13 00:09:27;;;;;;;6.43;2.03;;;13.80;98.90;;;;;;4147164;28;20238;-75
2021/06/13 00:11:28;;;;;;;9.50;2.57;;;13.80;99.10;;;;;;4147764;28;20661;-75
2021/06/13 00:13:30;;;;;;;5.07;2.40;;;13.70;99.40;;;;;;4147090;28;20211;-75
2021/06/13 00:15:31;;;;;;;5.57;2.10;;;13.70;99.40;;;;;;4146967;28;20231;-75
2021/06/13 00:17:32;;;;;;;7.03;2.47;;;13.70;99.30;;;;;;4151756;28;20215;-75
2021/06/13 00:19:34;;;;;;;5.57;2.23;;;13.70;99.50;;;;;;4147331;28;20215;-75
2021/06/13 00:21:35;;;;;;;5.87;2.53;;;13.70;99.60;;;;;;4153430;28;20218;-75
2021/06/13 00:23:38;;;;;;;6.20;2.60;;;13.70;99.70;;;;;;4163625;28;20404;-75
2021/06/13 00:25:40;;;;;;;5.37;2.27;;;13.70;99.80;;;;;;4132488;28;20620;-75
2021/06/13 00:27:41;;;;;;;5.60;2.00;;;13.70;99.80;;;;;;4138919;28;20721;-75
2021/06/13 00:29:42;;;;;;;4.67;2.17;;;13.70;99.80;;;;;;4147913;28;20235;-75
2021/06/13 00:31:43;;;;;;;4.53;2.33;;;13.70;99.80;;;;;;4147387;28;20224;-75
2021/06/13 00:33:45;;;;;;;3.40;1.97;;;13.70;99.80;;;;;;4150124;28;20426;-75
2021/06/13 00:35:46;;;;;;;4.93;2.00;;;13.70;99.80;;;;;;4148207;28;20239;-75
2021/06/13 00:37:47;;;;;;;3.60;2.10;;;13.70;99.80;;;;;;4148195;28;20219;-75
2021/06/13 00:39:50;;;;;;;5.77;2.40;;;13.70;99.90;;;;;;4148289;28;20215;-75
2021/06/13 00:41:51;;;;;;;5.80;2.50;;;13.70;99.90;;;;;;4147051;28;20219;-75
2021/06/13 00:43:52;;;;;;;6.67;2.40;;;13.60;99.90;;;;;;4133559;28;20219;-75
2021/06/13 00:45:53;;;;;;;4.60;2.20;;;13.60;99.90;;;;;;4160051;28;20239;-75
2021/06/13 00:47:56;;;;;;;7.80;2.40;;;13.50;99.90;;;;;;4158891;28;20218;-75
2021/06/13 00:49:57;;;;;;;5.00;2.20;;;13.50;99.90;;;;;;4146831;28;20235;-75
2021/06/13 00:51:58;;;;;;;6.00;2.37;;;13.50;99.90;;;;;;4147298;28;20214;-75
2021/06/13 00:53:59;;;;;;;8.70;2.47;;;13.50;99.90;;;;;;4141279;28;20682;-75
2021/06/13 00:56:03;;;;;;;8.53;2.73;;;13.40;99.90;;;;;;4152313;28;20238;-75
2021/06/13 00:58:05;;;;;;;6.67;2.40;;;13.40;99.90;;;;;;4147050;28;20250;-75
2021/06/13 01:00:07;;;;;;;7.33;2.40;;;13.30;99.90;;;;;;4154695;28;20668;-75
2021/06/13 01:02:09;;;;;;;7.07;2.70;;;13.30;99.90;;;;;;4142588;28;20615;-75
2021/06/13 01:04:10;;;;;;;6.60;2.23;;;13.20;99.90;;;;;;4143441;28;20213;-75
2021/06/13 01:06:12;;;;;;;6.80;2.50;;;13.20;99.90;;;;;;4146983;28;20650;-75
2021/06/13 01:08:23;;;;;;;4.07;2.27;;;13.20;99.90;;;;;;4147070;28;20608;-75
2021/06/13 01:10:40;;;;;;;4.73;2.90;;;13.10;99.90;;;;;;4146074;28;20217;-75
2021/06/13 01:12:49;;;;;;;6.47;2.17;;;13.10;99.90;;;;;;4152979;28;20203;-75
2021/06/13 01:15:01;;;;;;;6.70;2.60;;;13.00;99.90;;;;;;4163597;28;20581;-75
2021/06/13 01:17:08;;;;;;;5.47;2.40;;;13.00;99.90;;;;;;4152212;28;20205;-75
2021/06/13 01:19:35;;;;;;;6.90;2.73;;;12.90;99.90;;;;;;4146211;28;20217;-75
2021/06/13 01:21:54;;;;;;;5.30;2.50;;;12.90;99.90;;;;;;4132896;28;20226;-75
2021/06/13 01:24:06;;;;;;;10.90;2.60;;;12.90;99.90;;;;;;4149385;28;20249;-75
2021/06/13 01:26:28;;;;;;;8.23;3.00;;;12.80;99.90;;;;;;4146022;28;20259;-75
2021/06/13 01:28:55;;;;;;;10.13;3.00;;;12.80;99.90;;;;;;4143351;28;20221;-75
2021/06/13 01:30:59;;;;;;;8.07;2.70;;;12.80;99.90;;;;;;4141891;28;20215;-75
2021/06/13 01:33:03;;;;;;;6.10;2.53;;;12.70;99.90;;;;;;4147331;28;20222;-75
2021/06/13 01:35:08;;;;;;;6.77;2.50;;;12.70;99.90;;;;;;4147772;28;20259;-75
2021/06/13 01:37:12;;;;;;;10.53;2.93;;;12.70;99.90;;;;;;4147219;28;20221;-75
2021/06/13 01:39:17;;;;;;;6.20;2.60;;;12.70;99.90;;;;;;4134073;28;20218;-75
2021/06/13 01:41:23;;;;;;;7.23;2.53;;;12.60;99.90;;;;;;4146537;28;20211;-75
2021/06/13 01:43:25;;;;;;;7.87;3.13;;;12.60;99.90;;;;;;4146041;28;20220;-75
2021/06/13 01:45:31;;;;;;;5.30;2.50;;;12.60;99.90;;;;;;4144297;28;20304;-75
2021/06/13 01:47:35;;;;;;;6.67;2.87;;;12.50;99.90;;;;;;4146322;28;20651;-75
2021/06/13 01:49:40;;;;;;;5.93;2.67;;;12.50;99.90;;;;;;4138614;28;20695;-75
2021/06/13 01:51:42;;;;;;;8.87;2.60;;;12.50;99.90;;;;;;4146305;28;20206;-75
2021/06/13 01:53:45;;;;;;;6.50;2.47;;;12.40;99.90;;;;;;4146420;28;20632;-75
2021/06/13 01:55:49;;;;;;;7.87;2.73;;;12.40;99.90;;;;;;4149018;28;20293;-75
2021/06/13 01:57:50;;;;;;;5.07;2.57;;;12.40;99.90;;;;;;4137241;28;20213;-75
2021/06/13 01:59:54;;;;;;;6.20;2.87;;;12.40;99.90;;;;;;4142585;28;20204;-75
2021/06/13 02:01:59;;;;;;;6.10;2.50;;;12.30;99.90;;;;;;4146100;28;20218;-75
2021/06/13 02:04:01;;;;;;;6.13;2.90;;;12.30;99.90;;;;;;4146176;28;20209;-75
2021/06/13 02:06:04;;;;;;;5.93;2.67;;;12.20;99.90;;;;;;4147148;28;20246;-75
2021/06/13 02:08:07;;;;;;;8.70;2.93;;;12.20;99.90;;;;;;4145636;28;20578;-75
2021/06/13 02:10:11;;;;;;;6.13;2.87;;;12.20;99.90;;;;;;4145665;28;20236;-75
2021/06/13 02:12:13;;;;;;;5.93;2.60;;;12.10;99.90;;;;;;4147007;28;20221;-75
2021/06/13 02:14:15;;;;;;;8.80;3.03;;;12.10;99.90;;;;;;4144014;28;20213;-75
2021/06/13 02:16:18;;;;;;;5.93;2.43;;;12.10;99.90;;;;;;4145201;28;20234;-75
2021/06/13 02:18:22;;;;;;;9.60;3.03;;;12.10;99.90;;;;;;4145874;28;20254;-75
2021/06/13 02:20:26;;;;;;;5.57;2.87;;;12.00;99.90;;;;;;4146258;28;20209;-75
2021/06/13 02:22:27;;;;;;;5.53;2.60;;;12.00;99.90;;;;;;4145961;28;20217;-75
2021/06/13 02:24:32;;;;;;;6.20;2.80;;;12.00;99.90;;;;;;4130142;28;20204;-75
2021/06/13 02:26:34;;;;;;;5.10;2.30;;;12.00;99.90;;;;;;4143612;28;20698;-75
2021/06/13 02:28:39;;;;;;;7.90;2.67;;;12.00;99.90;;;;;;4155868;28;20282;-75
2021/06/13 02:30:41;;;;;;;8.17;2.80;;;12.00;99.90;;;;;;4142065;28;20255;-75
2021/06/13 02:32:43;;;;;;;5.40;2.60;;;12.00;99.90;;;;;;4130178;28;20212;-75
2021/06/13 02:34:48;;;;;;;5.47;2.73;;;12.00;99.90;;;;;;4139650;28;20271;-75
2021/06/13 02:36:50;;;;;;;6.10;2.80;;;12.00;99.90;;;;;;4145324;28;20231;-75
2021/06/13 02:38:53;;;;;;;5.53;2.93;;;12.00;99.90;;;;;;4150009;28;20219;-75
2021/06/13 02:40:54;;;;;;;6.87;2.77;;;12.00;99.90;;;;;;4149625;28;20756;-75
2021/06/13 02:42:55;;;;;;;11.37;2.73;;;12.10;99.90;;;;;;4150870;28;20215;-75
2021/06/13 02:44:57;;;;;;;4.93;2.70;;;12.10;99.90;;;;;;4149947;28;20234;-75
2021/06/13 02:46:58;;;;;;;17.70;2.70;;;12.10;99.90;;;;;;4148174;28;20216;-75
2021/06/13 02:48:59;;;;;;;6.07;2.40;;;12.00;99.90;;;;;;4148288;28;20235;-75
2021/06/13 02:51:02;;;;;;;6.97;2.67;;;12.10;99.90;;;;;;4149318;28;20280;-75
2021/06/13 02:53:13;;;;;;;8.83;3.10;;;12.10;99.90;;;;;;4162110;28;20212;-75
2021/06/13 02:55:19;;;;;;;8.70;2.80;;;12.00;99.90;;;;;;4155827;28;20234;-75
2021/06/13 02:57:24;;;;;;;7.73;2.83;;;12.10;99.90;;;;;;4144150;28;20203;-75
2021/06/13 02:59:33;;;;;;;4.83;2.37;;;12.00;99.90;;;;;;4148688;28;20213;-75
2021/06/13 03:01:37;;;;;;;5.37;2.80;;;12.10;99.90;;;;;;4158732;28;20218;-75
2021/06/13 03:03:39;;;;;;;10.53;3.10;;;12.00;99.90;;;;;;4149538;28;20258;-75
2021/06/13 03:05:41;;;;;;;7.80;3.17;;;12.00;99.90;;;;;;4160835;23;20233;-76
2021/06/13 03:07:45;;;;;;;7.97;2.80;;;12.00;99.90;;;;;;4169929;28;20644;-76
2021/06/13 03:09:49;;;;;;;8.27;2.77;;;12.00;99.90;;;;;;4165157;28;20244;-76
2021/06/13 03:11:50;;;;;;;9.10;3.17;;;12.00;99.90;;;;;;4175818;28;20686;-74
2021/06/13 03:13:53;;;;;;;8.83;3.33;;;12.00;99.90;;;;;;4179782;28;20254;-76
2021/06/13 03:15:55;;;;;;;13.77;3.20;;;11.90;99.90;;;;;;4166803;28;20712;-76
2021/06/13 03:17:58;;;;;;;7.70;2.40;;;11.90;99.90;;;;;;4179831;28;20609;-76
2021/06/13 03:19:59;;;;;;;8.53;2.73;;;11.90;99.90;;;;;;4172901;28;20652;-76
2021/06/13 03:22:03;;;;;;;9.93;2.90;;;11.90;99.90;;;;;;4165301;28;20604;-76
2021/06/13 03:24:08;;;;;;;11.90;3.00;;;11.80;99.90;;;;;;4174517;28;20541;-76
2021/06/13 03:26:10;;;;;;;9.50;2.83;;;11.80;99.90;;;;;;4164774;28;20235;-76
2021/06/13 03:28:12;;;;;;;8.53;3.10;;;11.80;99.90;;;;;;4169332;28;20205;-76
2021/06/13 03:30:15;;;;;;;7.73;3.30;;;11.80;99.90;;;;;;4164753;28;20235;-74
2021/06/13 03:32:18;;;;;;;10.20;3.10;;;11.80;99.90;;;;;;4171817;28;20203;-74
2021/06/13 03:34:19;;;;;;;7.57;3.00;;;11.90;99.90;;;;;;4164524;28;20215;-76
2021/06/13 03:36:22;;;;;;;7.43;2.83;;;11.80;99.90;;;;;;4164178;28;20239;-74
2021/06/13 03:38:24;;;;;;;8.77;2.90;;;11.80;99.90;;;;;;4168982;28;20664;-76
2021/06/13 03:40:30;;;;;;;7.27;2.97;;;11.80;99.90;;;;;;4179817;28;20256;-76
2021/06/13 03:42:31;;;;;;;7.57;2.90;;;11.80;99.90;;;;;;4167350;28;20308;-76
2021/06/13 03:44:35;;;;;;;5.07;2.90;;;11.80;99.90;;;;;;4164294;28;20269;-76
2021/06/13 03:46:37;;;;;;;7.13;2.87;;;11.80;99.90;;;;;;4177666;28;20598;-76
2021/06/13 03:48:40;;;;;;;7.93;3.10;;;11.70;99.90;;;;;;4176236;28;20211;-76
2021/06/13 03:50:43;;;;;;;10.03;3.00;;;11.70;99.90;;;;;;4174063;28;20231;-76
2021/06/13 03:52:46;;;;;;;7.20;3.13;;;11.70;99.90;;;;;;4174466;28;20282;-76
2021/06/13 03:54:47;;;;;;;5.63;3.07;;;11.70;99.90;;;;;;4173826;28;20242;-76
2021/06/13 03:56:54;;;;;;;10.30;3.07;;;11.70;99.90;;;;;;4178238;28;20235;-76
2021/06/13 03:58:57;;;;;;;7.37;2.90;;;11.70;99.90;;;;;;4176923;28;20213;-74
2021/06/13 04:01:00;;;;;;;8.27;2.80;;;11.70;99.90;;;;;;4177975;28;20217;-76
2021/06/13 04:03:04;;;;;;;7.13;3.30;;;11.70;99.90;;;;;;4181143;28;20270;-76
2021/06/13 04:05:06;;;;;;;8.80;3.50;;;11.70;99.90;;;;;;4173414;28;20218;-76
2021/06/13 04:07:10;;;;;;;7.83;3.03;;;11.70;99.90;;;;;;4172987;28;20238;-76
2021/06/13 04:09:13;;;;;;;8.00;2.90;;;11.70;99.90;;;;;;4179149;28;20218;-76
2021/06/13 04:11:15;;;;;;;6.10;2.97;;;11.60;99.90;;;;;;4166045;28;20218;-76
2021/06/13 04:13:19;;;;;;;7.80;3.43;;;11.60;99.90;;;;;;4164497;28;20261;-76
2021/06/13 04:15:22;;;;;;;7.73;2.97;;;11.60;99.90;;;;;;4172159;28;20210;-76
2021/06/13 04:17:26;;;;;;;8.60;3.23;;;11.60;99.90;;;;;;4174591;28;20573;-76
2021/06/13 04:19:29;;;;;;;8.13;3.00;;;11.60;99.90;;;;;;4166313;28;20203;-76
2021/06/13 04:21:31;;;;;;;10.00;3.00;;;11.60;99.90;;;;;;4180397;28;20211;-76
2021/06/13 04:23:33;;;;;;;9.77;3.00;;;11.50;99.90;;;;;;4179010;28;20676;-76
2021/06/13 04:25:35;;;;;;;8.97;3.40;;;11.50;99.90;;;;;;4176757;28;20269;-76
2021/06/13 04:27:38;;;;;;;10.37;3.50;;;11.60;99.90;;;;;;4172511;28;20203;-76
2021/06/13 04:29:41;;;;;;;8.13;3.40;;;11.50;99.90;;;;;;4167442;28;20875;-76
2021/06/13 04:31:43;;;;;;;8.93;3.23;;;11.50;99.90;;;;;;4173440;28;20293;-76
2021/06/13 04:33:47;;;;;;;7.10;3.27;;;11.50;99.90;;;;;;4174881;28;20207;-76
2021/06/13 04:35:49;;;;;;;7.83;2.80;;;11.40;99.90;;;;;;4178117;28;20640;-76
2021/06/13 04:37:50;;;;;;;11.77;3.77;;;11.50;99.90;;;;;;4174173;28;20655;-74
2021/06/13 04:39:52;;;;;;;9.20;3.20;;;11.40;99.90;;;;;;4179017;28;20253;-74
2021/06/13 04:41:55;;;;;;;10.93;3.70;;;11.50;99.90;;;;;;4180311;28;20210;-74
2021/06/13 04:43:56;;;;;;;9.23;3.33;;;11.50;99.90;;;;;;4179512;28;20630;-74
2021/06/13 04:45:59;;;;;;;10.37;3.17;;;11.50;99.90;;;;;;4179681;28;20704;-74
2021/06/13 04:48:06;;;;;;;9.00;4.00;;;11.50;99.90;;;;;;4168545;28;20212;-74
2021/06/13 04:50:08;;;;;;;10.57;3.47;;;11.60;99.90;;;;;;4163426;28;20290;-75
2021/06/13 04:52:13;;;;;;;7.97;3.47;;;11.60;99.90;;;;;;4164165;28;20257;-74
2021/06/13 04:54:34;;;;;;;10.80;3.57;;;11.60;99.90;;;;;;4164389;28;20218;-74
2021/06/13 04:56:42;;;;;;;14.10;3.73;;;11.70;99.90;;;;;;4164244;28;20239;-74
2021/06/13 04:58:44;;;;;;;10.60;3.80;;;11.80;99.90;;;;;;4165964;28;20738;-74
2021/06/13 05:00:46;;;;;;;10.67;3.70;;;11.80;99.90;;;;;;4173176;28;20282;-74
2021/06/13 05:02:49;;;;;;;11.53;3.40;;;11.90;99.90;;;;;;4166114;28;20211;-74
2021/06/13 05:04:56;;;;;;;10.90;3.40;;;11.90;99.90;;;;;;4166361;28;20868;-74
2021/06/13 05:07:03;;;;;;;7.27;3.60;;;11.90;99.90;;;;;;4174905;28;20241;-74
2021/06/13 05:09:05;;;;;;;8.17;3.30;;;11.90;99.90;;;;;;4179634;28;20264;-76
2021/06/13 05:11:07;;;;;;;10.70;3.97;;;11.90;99.90;;;;;;4166589;28;20604;-76
2021/06/13 05:13:15;;;;;;;10.83;3.70;;;11.80;99.90;;;;;;4179750;28;20268;-74
2021/06/13 05:15:18;;;;;;;10.07;3.17;;;11.90;99.90;;;;;;4180591;28;20300;-74
2021/06/13 05:17:19;;;;;;;9.63;3.67;;;11.90;99.90;;;;;;4166563;28;20298;-75
2021/06/13 05:19:23;;;;;;;5.47;2.90;;;11.90;99.90;;;;;;4163037;28;20689;-75
2021/06/13 05:21:24;;;;;;;8.03;3.43;;;12.00;99.90;;;;;;4163472;28;20715;-75
2021/06/13 05:23:27;;;;;;;9.30;3.23;;;12.00;99.90;;;;;;4178423;28;20260;-75
2021/06/13 05:25:32;;;;;;;10.37;3.40;;;12.10;99.90;;;;;;4163037;28;20215;-75
2021/06/13 05:27:34;;;;;;;7.00;2.97;;;12.20;99.90;;;;;;4166019;28;20217;-75
2021/06/13 05:29:36;;;;;;;7.13;3.33;;;12.20;99.90;;;;;;4178822;28;20223;-75
2021/06/13 05:31:37;;;;;;;11.07;4.00;;;12.30;99.90;;;;;;4178339;28;20655;-74
2021/06/13 05:33:39;;;;;;;13.73;4.07;;;12.40;99.90;;;;;;4172170;28;20239;-75
2021/06/13 05:35:43;;;;;;;10.17;3.53;;;12.40;99.90;;;;;;4176262;28;20224;-75
2021/06/13 05:37:44;;;;;;;9.30;3.40;;;12.50;99.90;;;;;;4173601;28;20261;-75
2021/06/13 05:39:46;;;;;;;12.33;3.97;;;12.50;99.90;;;;;;4178004;28;20219;-75
2021/06/13 05:41:48;;;;;;;13.63;3.53;;;12.60;99.90;;;;;;4172519;28;20253;-75
2021/06/13 05:43:50;;;;;;;7.17;3.43;;;12.60;99.90;;;;;;4173215;28;20265;-75
2021/06/13 05:45:52;;;;;;;12.47;3.90;;;12.70;99.90;;;;;;4162773;28;20483;-75
2021/06/13 05:47:55;;;;;;;12.10;3.67;;;12.70;99.90;;;;;;4163023;28;20210;-75
2021/06/13 05:49:56;;;;;;;11.13;3.37;;;12.80;99.90;;;;;;4162905;28;20232;-75
2021/06/13 05:51:59;;;;;;;12.77;4.20;;;12.80;99.90;;;;;;4164271;28;20212;-75
2021/06/13 05:54:01;;;;;;;7.53;3.57;;;12.90;99.90;;;;;;4175637;28;20212;-75
2021/06/13 05:56:03;;;;;;;9.63;3.47;;;12.90;99.90;;;;;;4179300;28;20251;-75
2021/06/13 05:58:05;;;;;;;8.97;3.77;;;13.00;99.90;;;;;;4171005;28;20217;-75
2021/06/13 06:00:09;;;;;;;11.23;3.60;;;13.00;99.90;;;;;;4162757;28;20222;-75
2021/06/13 06:02:10;;;;;;;10.70;3.80;;;13.10;99.90;;;;;;4172149;28;20233;-75
2021/06/13 06:04:12;;;;;;;9.07;3.47;;;13.10;99.90;;;;;;4166139;28;20563;-75
2021/06/13 06:06:14;;;;;;;12.70;3.83;;;13.20;99.90;;;;;;4162514;28;20252;-75
2021/06/13 06:08:17;;;;;;;9.20;3.50;;;13.20;99.90;;;;;;4162883;28;20618;-75
2021/06/13 06:10:21;;;;;;;11.97;3.33;;;13.30;99.90;;;;;;4172169;28;20639;-75
2021/06/13 06:12:22;;;;;;;7.67;3.40;;;13.40;99.90;;;;;;4180619;28;20286;-75
2021/06/13 06:14:24;;;;;;;8.10;3.23;;;13.50;99.90;;;;;;4176714;28;20213;-75
2021/06/13 06:16:26;;;;;;;8.33;3.17;;;13.60;99.90;;;;;;4178514;28;20229;-75
2021/06/13 06:18:28;;;;;;;7.93;3.07;;;13.70;99.90;;;;;;4177673;28;20244;-75
2021/06/13 06:20:31;;;;;;;12.40;3.43;;;13.80;99.90;;;;;;4181035;28;20209;-75
2021/06/13 06:22:33;;;;;;;7.90;3.00;;;13.70;99.90;;;;;;4179403;28;20217;-75
2021/06/13 06:24:37;;;;;;;8.87;3.57;;;13.80;99.90;;;;;;4178463;28;20214;-75
2021/06/13 06:26:39;;;;;;;7.33;3.03;;;13.80;99.90;;;;;;4181696;28;20229;-75
2021/06/13 06:28:41;;;;;;;8.33;2.83;;;13.80;99.90;;;;;;4174458;28;20210;-76
2021/06/13 06:30:43;;;;;;;11.57;3.23;;;13.80;99.90;;;;;;4177607;28;20237;-75
2021/06/13 06:32:45;;;;;;;9.03;3.13;;;13.90;99.80;;;;;;4172670;28;20206;-75
2021/06/13 06:34:47;;;;;;;8.33;3.03;;;13.90;99.60;;;;;;4176614;28;20214;-75
2021/06/13 06:36:49;;;;;;;9.97;3.23;;;13.90;99.40;;;;;;4178254;28;20277;-75
2021/06/13 06:38:50;;;;;;;10.97;3.30;;;13.90;99.60;;;;;;4171019;28;20276;-75
2021/06/13 06:40:54;;;;;;;5.30;2.60;;;14.00;99.50;;;;;;4165520;28;20344;-75
2021/06/13 06:42:55;;;;;;;13.17;4.00;;;14.00;99.40;;;;;;4166638;28;20214;-75
2021/06/13 06:44:57;;;;;;;10.63;3.43;;;14.10;99.40;;;;;;4179511;28;20209;-75
2021/06/13 06:47:02;;;;;;;10.23;3.00;;;14.20;99.40;;;;;;4182080;28;20234;-75
2021/06/13 06:49:05;;;;;;;9.47;3.03;;;14.30;98.50;;;;;;4180805;28;20252;-75
2021/06/13 06:51:06;;;;;;;9.63;3.07;;;14.40;98.00;;;;;;4177711;28;20237;-75
2021/06/13 06:53:08;;;;;;;9.30;3.00;;;14.40;98.00;;;;;;4178771;28;20261;-75
2021/06/13 06:55:12;;;;;;;9.73;3.13;;;14.40;97.60;;;;;;4180882;28;20675;-75
2021/06/13 06:57:15;;;;;;;7.83;3.20;;;14.50;97.30;;;;;;4180468;28;20226;-77
2021/06/13 06:59:17;;;;;;;9.73;3.50;;;14.50;97.50;;;;;;4182493;28;20221;-75
2021/06/13 07:01:19;;;;;;;8.10;2.57;;;14.50;97.40;;;;;;4181918;28;20213;-75
2021/06/13 07:03:20;;;;;;;8.47;3.10;;;14.50;97.50;;;;;;4180268;28;20226;-77
2021/06/13 07:05:22;;;;;;;6.20;2.80;;;14.60;97.60;;;;;;4173383;28;20221;-77
2021/06/13 07:07:24;;;;;;;10.27;3.37;;;14.60;97.60;;;;;;4164918;28;20273;-76
2021/06/13 07:09:26;;;;;;;11.53;3.13;;;14.60;97.20;;;;;;4171213;28;20215;-77
2021/06/13 07:11:27;;;;;;;11.50;2.87;;;14.60;96.80;;;;;;4170290;28;20644;-77
2021/06/13 07:13:30;;;;;;;8.83;3.17;;;14.50;96.90;;;;;;4181894;28;20279;-77
2021/06/13 07:15:33;;;;;;;8.17;3.20;;;14.50;97.10;;;;;;4167856;28;20254;-77
2021/06/13 07:17:35;;;;;;;7.63;3.13;;;14.40;97.50;;;;;;4165197;28;20582;-77
2021/06/13 07:19:37;;;;;;;10.67;3.40;;;14.30;97.80;;;;;;4179129;28;20626;-77
2021/06/13 07:21:39;;;;;;;11.43;3.13;;;14.30;98.00;;;;;;4174322;28;20219;-77
2021/06/13 07:23:40;;;;;;;10.20;3.70;;;14.30;98.10;;;;;;4167193;28;20538;-76
2021/06/13 07:25:42;;;;;;;10.73;3.13;;;14.30;98.10;;;;;;4171265;28;20300;-75
2021/06/13 07:27:44;;;;;;;8.70;3.53;;;14.30;98.20;;;;;;4177542;28;20571;-75
2021/06/13 07:29:47;;;;;;;11.33;3.30;;;14.30;98.30;;;;;;4172845;28;20214;-77
2021/06/13 07:31:48;;;;;;;8.57;2.83;;;14.30;98.40;;;;;;4166371;28;20235;-75
2021/06/13 07:33:50;;;;;;;8.10;2.90;;;14.30;98.50;;;;;;4178080;28;20213;-75
2021/06/13 07:35:52;;;;;;;6.93;3.30;;;14.40;98.30;;;;;;4179911;28;20760;-75
2021/06/13 07:37:54;;;;;;;8.27;3.30;;;14.40;98.10;;;;;;4172476;28;20657;-75
2021/06/13 07:39:56;;;;;;;10.03;3.33;;;14.40;98.00;;;;;;4174765;28;20714;-77
2021/06/13 07:41:58;;;;;;;5.87;2.97;;;14.50;98.10;;;;;;4173719;28;20219;-75
2021/06/13 07:44:00;;;;;;;9.53;3.17;;;14.60;98.10;;;;;;4164616;28;20218;-75
2021/06/13 07:46:03;;;;;;;9.90;3.07;;;14.70;98.10;;;;;;4173919;28;20595;-75
2021/06/13 07:48:06;;;;;;;10.43;3.47;;;14.80;97.40;;;;;;4180721;28;20198;-75
2021/06/13 07:50:12;;;;;;;10.00;2.83;;;14.90;97.10;;;;;;4179810;28;20215;-75
2021/06/13 07:52:13;;;;;;;8.80;2.93;;;14.90;97.10;;;;;;4180775;28;20222;-75
2021/06/13 07:54:15;;;;;;;6.60;3.10;;;15.00;96.80;;;;;;4180850;28;20218;-75
2021/06/13 07:56:17;;;;;;;9.83;3.00;;;15.10;96.30;;;;;;4179975;28;20726;-75
2021/06/13 07:58:19;;;;;;;8.70;2.97;;;15.20;95.80;;;;;;4165079;28;20665;-77
2021/06/13 08:00:23;;;;;;;5.27;2.67;;;15.20;95.70;;;;;;4164416;28;20212;-77
2021/06/13 08:02:26;;;;;;;9.37;2.63;;;15.30;94.60;;;;;;4164847;28;20210;-77
2021/06/13 08:04:34;;;;;;;10.77;3.20;;;15.40;94.40;;;;;;4164527;28;20726;-77
2021/06/13 08:06:36;;;;;;;4.40;2.20;;;15.40;94.30;;;;;;4166671;28;20234;-77
2021/06/13 08:08:37;;;;;;;6.80;2.43;;;15.50;93.90;;;;;;4177042;28;20207;-77
2021/06/13 08:10:39;;;;;;;6.23;2.37;;;15.60;93.20;;;;;;4182680;28;20306;-74
2021/06/13 08:12:41;;;;;;;6.77;2.53;;;15.70;92.90;;;;;;4167566;28;20250;-75
2021/06/13 08:14:43;;;;;;;6.93;2.70;;;15.80;92.40;;;;;;4165769;28;20243;-77
2021/06/13 08:16:45;;;;;;;4.57;2.00;;;15.80;91.60;;;;;;4164988;28;20238;-77
2021/06/13 08:18:48;;;;;;;6.27;2.00;;;15.90;90.60;;;;;;4176470;28;20273;-75
2021/06/13 08:20:51;;;;;;;6.80;2.10;;;15.90;89.80;;;;;;4181010;28;20208;-76
2021/06/13 08:22:52;;;;;;;5.17;2.10;;;15.90;89.70;;;;;;4174615;28;20691;-76
2021/06/13 08:24:55;;;;;;;5.17;2.07;;;16.00;90.10;;;;;;4175048;28;20210;-76
2021/06/13 08:26:57;;;;;;;8.33;2.43;;;15.90;90.30;;;;;;4180141;28;20267;-76
2021/06/13 08:29:02;;;;;;;8.50;2.23;;;15.90;90.10;;;;;;4175674;28;20218;-76
2021/06/13 08:31:03;;;;;;;7.43;2.60;;;15.80;89.50;;;;;;4173218;28;20236;-77
2021/06/13 08:33:05;;;;;;;3.93;2.20;;;15.80;90.10;;;;;;4177693;28;20295;-76
2021/06/13 08:35:10;;;;;;;5.97;2.20;;;15.70;90.70;;;;;;4178674;28;20264;-76
2021/06/13 08:37:12;;;;;;;5.77;2.13;;;15.70;91.00;;;;;;4170831;28;20580;-76
2021/06/13 08:39:14;;;;;;;4.67;2.10;;;15.70;90.90;;;;;;4177951;28;20249;-77
2021/06/13 08:41:17;;;;;;;5.47;2.20;;;15.70;90.90;;;;;;4169257;28;20629;-77
2021/06/13 08:43:19;;;;;;;6.83;2.33;;;15.70;91.20;;;;;;4172631;28;20203;-77
2021/06/13 08:45:22;;;;;;;6.23;2.30;;;15.80;91.10;;;;;;4172000;28;20623;-74
2021/06/13 08:47:25;;;;;;;6.23;2.43;;;15.90;90.80;;;;;;4184644;28;20256;-74
2021/06/13 08:49:27;;;;;;;4.83;2.33;;;16.00;90.80;;;;;;4181186;28;20624;-77
2021/06/13 08:51:33;;;;;;;6.57;2.27;;;16.10;90.40;;;;;;4183477;28;20270;-77
2021/06/13 08:53:34;;;;;;;6.03;2.40;;;16.20;90.60;;;;;;4180693;28;20583;-77
2021/06/13 08:55:36;;;;;;;8.37;3.03;;;16.30;90.40;;;;;;4182524;28;20212;-77
2021/06/13 08:57:38;;;;;;;6.37;2.27;;;16.50;86.00;;;;;;4183345;28;20263;-77
2021/06/13 08:59:42;;;;;;;5.77;1.97;;;16.60;85.90;;;;;;4180062;28;20587;-77
2021/06/13 09:01:44;;;;;;;7.80;2.10;;;16.60;83.70;;;;;;4183316;28;20212;-77
2021/06/13 09:03:46;;;;;;;7.57;2.20;;;16.70;81.30;;;;;;4182421;28;20226;-77
2021/06/13 09:07:55;;;;;;;4.73;1.90;;;16.90;80.20;;;;;;4181262;28;20258;-75
2021/06/13 09:10:06;;;;;;;4.23;2.10;;;16.90;79.40;;;;;;4181048;28;20211;-75
2021/06/13 09:12:09;;;;;;;5.73;2.17;;;16.80;80.90;;;;;;4173994;28;20292;-75
2021/06/13 09:14:13;;;;;;;6.93;2.30;;;16.90;81.70;;;;;;4174723;28;20218;-75
2021/06/13 09:16:14;;;;;;;6.23;2.33;;;17.00;81.30;;;;;;4180742;28;20234;-74
2021/06/13 09:18:35;;;;;;;32.63;17.03;;;17.00;82.10;;;;;;4178703;28;20280;-74
2021/06/13 09:20:42;;;;;;;22.80;10.90;;;17.10;81.30;;;;;;4185307;28;20205;-75
2021/06/13 09:23:08;;;;;;;11.23;5.53;;;17.20;81.50;;;;;;4182756;28;20266;-75
2021/06/13 09:25:13;;;;;;;9.27;3.10;;;17.30;77.70;;;;;;4185309;28;20274;-75
2021/06/13 09:27:15;;;;;;;7.23;1.87;;;17.40;78.00;;;;;;4182292;28;20280;-75
2021/06/13 09:29:17;;;;;;;5.03;1.90;;;17.40;73.00;;;;;;4186165;28;20202;-75
2021/06/13 09:31:21;;;;;;;8.10;2.03;;;17.40;73.10;;;;;;4185055;28;20238;-72
2021/06/13 09:33:26;;;;;;;5.57;2.30;;;17.50;73.10;;;;;;4186289;28;20206;-73
2021/06/13 09:35:30;;;;;;;7.77;2.20;;;17.50;73.60;;;;;;4181149;28;20210;-72
2021/06/13 09:37:32;;;;;;;6.27;2.00;;;17.40;74.40;;;;;;4175765;28;20234;-72
2021/06/13 09:39:35;;;;;;;7.83;2.53;;;17.40;74.30;;;;;;4175661;28;20588;-72
2021/06/13 09:41:39;;;;;;;5.67;2.17;;;17.30;75.00;;;;;;4181787;28;20210;-72
2021/06/13 09:43:44;;;;;;;4.73;1.67;;;17.40;75.00;;;;;;4188844;28;20231;-72
2021/06/13 09:45:47;;;;;;;8.70;2.37;;;17.30;74.00;;;;;;4179430;28;20223;-73
2021/06/13 09:48:00;;;;;;;8.63;2.20;;;17.20;74.80;;;;;;4176443;28;20210;-73
2021/06/13 09:50:02;;;;;;;5.80;2.20;;;17.20;76.10;;;;;;4189202;28;20255;-74
2021/06/13 09:52:06;;;;;;;5.87;2.80;;;17.20;77.30;;;;;;4180564;28;20313;-73
2021/06/13 09:54:09;;;;;;;7.73;3.43;;;17.20;78.80;;;;;;4180875;28;20234;-73
2021/06/13 09:56:17;;;;;;;12.00;4.60;;;17.30;76.50;;;;;;4175750;28;20229;-75
2021/06/13 09:58:19;;;;;;;9.17;3.40;;;17.20;77.00;;;;;;4180431;28;20305;-75
2021/06/13 10:00:25;;;;;;;7.60;2.87;;;17.30;77.90;;;;;;4178822;28;20213;-80
2021/06/13 10:02:31;;;;;;;7.13;2.93;;;17.30;78.40;;;;;;4164069;28;20207;-79
2021/06/13 10:04:36;;;;;;;5.97;2.20;;;17.50;79.90;;;;;;4164595;28;20717;-77
2021/06/13 10:06:38;;;;;;;6.50;2.60;;;17.60;76.60;;;;;;4170817;28;20244;-79
2021/06/13 10:08:41;;;;;;;8.37;2.90;;;17.70;76.20;;;;;;4183728;28;20206;-79
2021/06/13 10:10:44;;;;;;;5.57;2.30;;;17.80;73.00;;;;;;4180922;28;20674;-78
2021/06/13 10:12:56;;;;;;;5.23;2.13;;;17.90;72.90;;;;;;4179141;28;20284;-78
2021/06/13 10:15:12;;;;;;;5.07;2.40;;;18.10;72.80;;;;;;4177408;28;20203;-77
2021/06/13 10:17:14;;;;;;;9.43;2.20;;;18.00;71.30;;;;;;4178562;28;20749;-79
2021/06/13 10:19:17;;;;;;;5.40;2.00;;;17.90;67.80;;;;;;4179897;28;20224;-80
2021/06/13 10:21:18;;;;;;;7.27;2.30;;;17.90;68.00;;;;;;4175482;28;20273;-79
2021/06/13 10:23:20;;;;;;;5.33;1.97;;;17.80;67.00;;;;;;4183366;28;20245;-80
2021/06/13 10:25:22;;;;;;;5.17;2.50;;;17.80;65.00;;;;;;4183188;28;20217;-80
2021/06/13 10:27:24;;;;;;;4.23;1.90;;;17.80;66.40;;;;;;4178557;28;20223;-81
2021/06/13 10:29:29;;;;;;;5.00;1.80;;;17.90;64.90;;;;;;4177266;28;20233;-80
2021/06/13 10:31:31;;;;;;;5.67;2.17;;;17.90;64.40;;;;;;4171663;28;20268;-82
2021/06/13 10:33:33;;;;;;;6.73;1.80;;;17.90;64.90;;;;;;4177132;28;20206;-78
2021/06/13 10:35:34;;;;;;;31.30;18.40;;;18.00;64.60;;;;;;4178980;28;20211;-75
2021/06/13 10:37:36;;;;;;;37.50;21.60;;;18.00;60.90;;;;;;4177645;28;20280;-83
2021/06/13 10:39:39;;;;;;;11.37;5.93;;;18.00;62.10;;;;;;4178380;28;20209;-79
2021/06/13 10:41:41;;;;;;;7.27;3.00;;;18.10;59.40;;;;;;4179452;28;20206;-79
2021/06/13 10:43:44;;;;;;;5.10;2.27;;;18.10;60.00;;;;;;4180886;28;20214;-78